Terminal Aerodrome Forecast
Issued by NWS Sterling, VA

Current Version | Previous Version | Text Only | Print | Product List | Glossary On
Versions: 1 2 3 4 5 6 7 8 9 10 11 12 13 14
000
FTUS41 KLWX 161100
TAFMRB
TAF
KMRB 161134Z 1612/1712 34013G21KT P6SM SKC
     FM161600 01013KT P6SM SKC
     FM162100 03008KT P6SM FEW250
     FM170000 08004KT P6SM SKC=

USA.gov is the U.S. government's official web portal to all federal, state and local government web resources and services.